createdAt,value
2022-11-10T00:01:17.681Z,1.73
2022-11-10T00:03:46.249Z,1.20
2022-11-10T00:06:14.819Z,2.33
2022-11-10T00:08:44.738Z,2.17
2022-11-10T00:11:13.299Z,1.80
2022-11-10T00:14:01.847Z,1.87
2022-11-10T00:16:48.166Z,4.23
2022-11-10T00:19:16.759Z,1.60
2022-11-10T00:21:45.284Z,1.67
2022-11-10T00:24:15.166Z,1.40
2022-11-10T00:26:43.682Z,1.70
2022-11-10T00:29:12.393Z,2.73
2022-11-10T00:31:41.387Z,2.30
2022-11-10T00:34:12.815Z,1.93
2022-11-10T00:36:41.612Z,2.33
2022-11-10T00:39:10.404Z,2.90
2022-11-10T00:41:40.317Z,1.57
2022-11-10T00:44:08.867Z,1.77
2022-11-10T00:46:37.418Z,2.87
2022-11-10T00:49:06.179Z,2.20
2022-11-10T00:51:34.738Z,1.77
2022-11-10T00:54:03.300Z,1.97
2022-11-10T00:56:32.021Z,2.03
2022-11-10T00:59:01.933Z,1.60
2022-11-10T01:01:30.591Z,2.13
2022-11-10T01:03:59.201Z,2.63
2022-11-10T01:06:27.771Z,2.37
2022-11-10T01:08:56.358Z,2.13
2022-11-10T01:11:25.898Z,2.13
2022-11-10T01:13:55.125Z,2.63
2022-11-10T01:16:25.675Z,1.53
2022-11-10T01:18:55.187Z,2.37
2022-11-10T01:21:24.057Z,2.83
2022-11-10T01:23:52.831Z,1.60
2022-11-10T01:26:21.680Z,1.97
2022-11-10T01:28:50.237Z,1.53
2022-11-10T01:31:20.316Z,2.37
2022-11-10T01:33:50.263Z,1.30
2022-11-10T01:36:18.932Z,2.07
2022-11-10T01:38:47.508Z,2.27
2022-11-10T01:41:16.521Z,2.20
2022-11-10T01:43:45.110Z,1.30
2022-11-10T01:46:13.989Z,1.60
2022-11-10T01:48:44.136Z,2.17
2022-11-10T01:51:25.262Z,2.87
2022-11-10T01:53:56.251Z,2.13
2022-11-10T01:56:25.242Z,2.87
2022-11-10T01:58:56.269Z,0.87
2022-11-10T02:01:25.704Z,2.20
2022-11-10T02:03:55.539Z,1.90
2022-11-10T02:06:27.318Z,3.23
2022-11-10T02:08:56.237Z,1.90
2022-11-10T02:11:25.068Z,2.07
2022-11-10T02:13:54.254Z,2.47
2022-11-10T02:16:23.135Z,2.33
2022-11-10T02:18:51.769Z,2.10
2022-11-10T02:21:22.396Z,1.80
2022-11-10T02:23:51.978Z,1.30
2022-11-10T02:26:22.259Z,2.10
2022-11-10T02:28:51.030Z,1.93
2022-11-10T02:31:19.595Z,2.97
2022-11-10T02:33:48.205Z,2.27
2022-11-10T02:36:16.768Z,1.33
2022-11-10T02:38:46.689Z,3.00
2022-11-10T02:41:15.247Z,1.50
2022-11-10T02:43:43.945Z,1.27
2022-11-10T02:46:12.563Z,2.13
2022-11-10T02:48:41.133Z,2.60
2022-11-10T02:51:09.665Z,1.27
2022-11-10T02:53:38.234Z,2.20
2022-11-10T02:56:08.684Z,1.57
2022-11-10T02:58:37.220Z,1.97
2022-11-10T03:01:06.864Z,2.10
2022-11-10T03:03:36.007Z,2.40
2022-11-10T03:06:04.555Z,1.10
2022-11-10T03:08:33.118Z,2.20
2022-11-10T03:11:01.662Z,3.27
2022-11-10T03:13:45.227Z,2.07
2022-11-10T03:16:20.334Z,1.90
2022-11-10T03:18:48.892Z,1.80
2022-11-10T03:21:17.526Z,2.93
2022-11-10T03:23:46.115Z,1.73
2022-11-10T03:26:15.013Z,2.43
2022-11-10T03:28:44.946Z,1.80
2022-11-10T03:31:13.930Z,1.57
2022-11-10T03:33:42.456Z,2.63
2022-11-10T03:36:11.096Z,1.73
2022-11-10T03:38:39.639Z,2.70
2022-11-10T03:41:23.597Z,2.33
2022-11-10T03:43:53.519Z,1.73
2022-11-10T03:46:22.077Z,2.13
2022-11-10T03:48:53.699Z,2.20
2022-11-10T03:51:23.927Z,3.37
2022-11-10T03:53:52.513Z,1.90
2022-11-10T03:56:21.049Z,3.07
2022-11-10T03:58:49.561Z,2.80
2022-11-10T04:01:19.496Z,2.53
2022-11-10T04:03:51.503Z,3.50
2022-11-10T04:06:38.141Z,2.70
2022-11-10T04:09:07.370Z,1.50
2022-11-10T04:11:53.742Z,2.00
2022-11-10T04:14:40.193Z,1.80
2022-11-10T04:17:10.507Z,2.60
2022-11-10T04:19:39.038Z,1.60
2022-11-10T04:22:27.571Z,2.30
2022-11-10T04:24:56.135Z,1.83
2022-11-10T04:27:24.684Z,2.80
2022-11-10T04:29:53.232Z,2.77
2022-11-10T04:32:23.098Z,2.17
2022-11-10T04:34:51.641Z,2.00
2022-11-10T04:37:20.398Z,1.67
2022-11-10T04:39:48.927Z,2.67
2022-11-10T04:42:17.469Z,3.07
2022-11-10T04:44:46.028Z,2.13
2022-11-10T04:47:14.621Z,2.27
2022-11-10T04:49:44.586Z,1.97
2022-11-10T04:52:13.138Z,2.97
2022-11-10T04:54:41.682Z,3.07
2022-11-10T04:57:10.208Z,2.10
2022-11-10T04:59:38.756Z,2.00
2022-11-10T05:02:07.271Z,2.13
2022-11-10T05:04:35.823Z,2.10
2022-11-10T05:07:05.765Z,2.83
2022-11-10T05:09:34.375Z,2.20
2022-11-10T05:12:03.013Z,2.27
2022-11-10T05:14:31.619Z,1.70
2022-11-10T05:17:00.165Z,2.73
2022-11-10T05:19:28.696Z,3.20
2022-11-10T05:21:57.246Z,1.90
2022-11-10T05:24:27.140Z,1.73
2022-11-10T05:26:55.710Z,2.20
2022-11-10T05:29:24.284Z,1.37
2022-11-10T05:31:52.844Z,1.80
2022-11-10T05:34:21.413Z,2.40
2022-11-10T05:36:49.958Z,1.80
2022-11-10T05:39:18.537Z,2.10
2022-11-10T05:41:48.448Z,2.10
2022-11-10T05:44:17.109Z,2.47
2022-11-10T05:46:45.663Z,1.83
2022-11-10T05:49:14.230Z,2.10
2022-11-10T05:51:42.789Z,2.70
2022-11-10T05:54:11.364Z,2.40
2022-11-10T05:56:39.895Z,2.57
2022-11-10T05:59:09.785Z,2.70
2022-11-10T06:01:38.404Z,3.17
2022-11-10T06:04:07.130Z,1.50
2022-11-10T06:06:35.717Z,1.77
2022-11-10T06:09:04.332Z,2.10
2022-11-10T06:11:32.889Z,2.47
2022-11-10T06:14:01.625Z,2.37
2022-11-10T06:16:31.500Z,2.83
2022-11-10T06:19:00.054Z,3.37
2022-11-10T06:21:28.585Z,2.83
2022-11-10T06:23:57.160Z,3.13
2022-11-10T06:26:25.786Z,2.07
2022-11-10T06:28:54.352Z,1.63
2022-11-10T06:31:22.997Z,1.83
2022-11-10T06:33:53.101Z,3.60
2022-11-10T06:36:21.642Z,2.73
2022-11-10T06:38:50.204Z,1.80
2022-11-10T06:41:22.656Z,1.70
2022-11-10T06:43:53.755Z,2.90
2022-11-10T06:46:22.516Z,2.87
2022-11-10T06:48:51.088Z,3.23
2022-11-10T06:51:20.960Z,1.53
2022-11-10T06:53:49.557Z,2.50
2022-11-10T06:56:18.164Z,3.20
2022-11-10T06:58:46.792Z,2.00
2022-11-10T07:01:19.930Z,1.73
2022-11-10T07:04:17.765Z,3.00
2022-11-10T07:06:40.708Z,1.80
2022-11-10T07:09:09.364Z,3.00
2022-11-10T07:11:37.932Z,3.17
2022-11-10T07:14:06.450Z,1.67
2022-11-10T07:16:35.019Z,1.97
2022-11-10T07:19:03.607Z,1.50
2022-11-10T07:21:32.160Z,3.10
2022-11-10T07:24:02.052Z,2.57
2022-11-10T07:26:30.619Z,2.47
2022-11-10T07:28:59.141Z,2.10
2022-11-10T07:31:27.701Z,3.33
2022-11-10T07:33:56.308Z,3.43
2022-11-10T07:36:28.775Z,3.17
2022-11-10T07:38:57.366Z,2.13
2022-11-10T07:41:27.232Z,2.50
2022-11-10T07:43:55.787Z,2.20
2022-11-10T07:46:24.337Z,1.33
2022-11-10T07:48:52.909Z,2.33
2022-11-10T07:51:21.678Z,2.90
2022-11-10T07:53:50.248Z,3.07
2022-11-10T07:56:18.843Z,2.43
2022-11-10T07:58:49.862Z,2.23
2022-11-10T08:01:18.445Z,1.83
2022-11-10T08:03:47.062Z,2.70
2022-11-10T08:06:15.667Z,2.77
2022-11-10T08:08:44.263Z,3.17
2022-11-10T08:11:12.830Z,3.63
2022-11-10T08:13:41.393Z,3.33
2022-11-10T08:16:11.408Z,3.17
2022-11-10T08:18:39.942Z,2.27
2022-11-10T08:21:08.483Z,5.47
2022-11-10T08:23:37.051Z,3.67
2022-11-10T08:26:05.612Z,1.87
2022-11-10T08:28:34.161Z,2.80
2022-11-10T08:31:05.708Z,3.73
2022-11-10T08:33:36.290Z,2.43
2022-11-10T08:36:04.888Z,3.07
2022-11-10T08:38:33.473Z,4.93
2022-11-10T08:41:02.058Z,2.97
2022-11-10T08:43:30.910Z,4.93
2022-11-10T08:46:01.520Z,2.97
2022-11-10T08:48:30.095Z,2.87
2022-11-10T08:51:01.036Z,2.30
2022-11-10T08:53:29.636Z,3.23
2022-11-10T08:56:00.308Z,2.43
2022-11-10T08:58:28.867Z,2.47
2022-11-10T09:00:58.310Z,2.50
2022-11-10T09:03:27.331Z,2.73
2022-11-10T09:05:58.510Z,2.83
2022-11-10T09:08:28.596Z,2.47
2022-11-10T09:10:57.182Z,3.57
2022-11-10T09:13:29.939Z,2.57
2022-11-10T09:15:58.984Z,2.23
2022-11-10T09:18:27.546Z,2.20
2022-11-10T09:20:56.108Z,3.60
2022-11-10T09:23:26.411Z,3.40
2022-11-10T09:25:57.051Z,4.27
2022-11-10T09:28:26.002Z,2.97
2022-11-10T09:30:54.613Z,2.13
2022-11-10T09:33:23.466Z,2.97
2022-11-10T09:35:52.364Z,3.70
2022-11-10T09:38:21.265Z,2.30
2022-11-10T09:40:53.735Z,3.20
2022-11-10T09:43:26.641Z,2.70
2022-11-10T09:45:57.110Z,4.00
2022-11-10T09:48:27.731Z,3.20
2022-11-10T09:50:58.946Z,2.77
2022-11-10T09:53:29.884Z,3.27
2022-11-10T09:56:00.120Z,3.30
2022-11-10T09:58:33.736Z,2.53
2022-11-10T10:01:07.087Z,2.83
2022-11-10T10:03:37.865Z,3.13
2022-11-10T10:06:09.004Z,2.13
2022-11-10T10:08:47.169Z,3.10
2022-11-10T10:11:23.033Z,2.03
2022-11-10T10:14:02.903Z,2.03
2022-11-10T10:16:35.948Z,2.17
2022-11-10T10:19:09.833Z,2.27
2022-11-10T10:21:42.563Z,1.80
2022-11-10T10:24:19.894Z,2.57
2022-11-10T10:26:51.421Z,1.87
2022-11-10T10:29:23.561Z,2.27
2022-11-10T10:31:52.879Z,2.90
2022-11-10T10:34:23.718Z,2.63
2022-11-10T10:36:52.430Z,3.40
2022-11-10T10:39:26.067Z,3.00
2022-11-10T10:41:54.609Z,2.43
2022-11-10T10:44:25.010Z,2.10
2022-11-10T10:46:57.853Z,2.13
2022-11-10T10:49:29.090Z,2.57
2022-11-10T10:52:05.852Z,2.20
2022-11-10T10:54:35.147Z,2.50
2022-11-10T10:57:04.833Z,1.93
2022-11-10T10:59:35.262Z,2.23
2022-11-10T11:02:03.817Z,2.20
2022-11-10T11:04:34.191Z,2.13
2022-11-10T11:07:03.915Z,1.97
2022-11-10T11:09:40.815Z,1.67
2022-11-10T11:12:10.438Z,2.53
2022-11-10T11:14:45.611Z,1.80
2022-11-10T11:17:15.512Z,2.23
2022-11-10T11:19:44.121Z,2.80
2022-11-10T11:22:26.248Z,2.87
2022-11-10T11:24:56.592Z,3.83
2022-11-10T11:27:28.052Z,1.90
2022-11-10T11:30:04.237Z,2.60
2022-11-10T11:32:51.975Z,1.43
2022-11-10T11:35:23.748Z,2.73
2022-11-10T11:37:57.596Z,2.37
2022-11-10T11:40:28.178Z,2.53
2022-11-10T11:43:01.984Z,2.33
2022-11-10T11:45:37.226Z,1.87
2022-11-10T11:48:19.731Z,2.40
2022-11-10T11:50:52.805Z,2.00
2022-11-10T11:53:28.094Z,2.10
2022-11-10T11:56:02.774Z,3.37
2022-11-10T11:58:35.446Z,1.83
2022-11-10T12:01:10.707Z,2.50
2022-11-10T12:03:52.349Z,2.33
2022-11-10T12:06:28.775Z,2.10
2022-11-10T12:09:02.294Z,1.50
2022-11-10T12:11:36.176Z,2.03
2022-11-10T12:14:07.520Z,1.87
2022-11-10T12:16:37.533Z,2.13
2022-11-10T12:19:11.964Z,2.23
2022-11-10T12:21:44.087Z,1.30
2022-11-10T12:24:30.175Z,1.97
2022-11-10T12:26:59.964Z,1.40
2022-11-10T12:29:31.295Z,2.23
2022-11-10T12:32:04.979Z,1.47
2022-11-10T12:34:35.666Z,1.57
2022-11-10T12:37:06.702Z,1.70
2022-11-10T12:39:40.015Z,1.27
2022-11-10T12:42:13.423Z,1.23
2022-11-10T12:44:45.187Z,1.17
2022-11-10T12:47:18.257Z,2.13
2022-11-10T12:49:51.030Z,1.40
2022-11-10T12:52:23.034Z,1.90
2022-11-10T12:54:51.621Z,1.30
2022-11-10T12:57:21.655Z,2.70
2022-11-10T12:59:54.084Z,1.77
2022-11-10T13:02:29.052Z,1.40
2022-11-10T13:05:19.574Z,1.83
2022-11-10T13:07:49.492Z,3.30
2022-11-10T13:10:23.157Z,1.50
2022-11-10T13:13:01.264Z,1.17
2022-11-10T13:15:49.417Z,1.63
2022-11-10T13:18:26.175Z,1.67
2022-11-10T13:20:55.423Z,1.00
2022-11-10T13:23:24.893Z,1.60
2022-11-10T13:25:55.136Z,1.47
2022-11-10T13:28:42.222Z,1.90
2022-11-10T13:31:34.573Z,2.23
2022-11-10T13:34:07.884Z,3.90
2022-11-10T13:36:39.655Z,2.13
2022-11-10T13:39:18.431Z,0.87
2022-11-10T13:41:47.758Z,1.47
2022-11-10T13:44:22.228Z,1.67
2022-11-10T13:46:59.470Z,1.47
2022-11-10T13:49:39.824Z,1.50
2022-11-10T13:52:12.478Z,1.87
2022-11-10T13:54:55.962Z,1.10
2022-11-10T13:57:29.552Z,1.40
2022-11-10T14:00:00.204Z,1.10
2022-11-10T14:02:47.406Z,2.00
2022-11-10T14:05:38.381Z,1.27
2022-11-10T14:08:12.846Z,1.50
2022-11-10T14:10:42.955Z,1.57
2022-11-10T14:13:14.092Z,2.47
2022-11-10T14:15:43.656Z,2.03
2022-11-10T14:18:19.253Z,1.20
2022-11-10T14:20:48.772Z,1.43
2022-11-10T14:23:21.395Z,1.10
2022-11-10T14:25:55.333Z,1.47
2022-11-10T14:28:27.367Z,1.77
2022-11-10T14:30:56.641Z,1.10
2022-11-10T14:33:26.558Z,1.43
2022-11-10T14:35:57.149Z,1.80
2022-11-10T14:38:29.350Z,1.77
2022-11-10T14:40:59.027Z,1.33
2022-11-10T14:43:28.548Z,1.13
2022-11-10T14:45:57.120Z,1.33
2022-11-10T14:48:26.597Z,1.43
2022-11-10T14:50:55.825Z,1.30
2022-11-10T14:53:29.110Z,1.17
2022-11-10T14:56:00.118Z,1.27
2022-11-10T14:58:32.423Z,1.33
2022-11-10T15:01:01.296Z,1.90
2022-11-10T15:03:34.968Z,1.70
2022-11-10T15:06:04.492Z,1.00
2022-11-10T15:08:33.720Z,1.97
2022-11-10T15:11:03.619Z,1.40
2022-11-10T15:13:39.064Z,1.17
2022-11-10T15:16:24.891Z,1.73
2022-11-10T15:18:54.852Z,1.40
2022-11-10T15:21:24.395Z,1.33
2022-11-10T15:23:54.894Z,1.93
2022-11-10T15:26:25.544Z,1.90
2022-11-10T15:28:54.412Z,1.23
2022-11-10T15:31:24.192Z,1.87
2022-11-10T15:33:53.457Z,1.53
2022-11-10T15:36:29.840Z,1.67
2022-11-10T15:39:05.768Z,1.70
2022-11-10T15:41:36.415Z,1.50
2022-11-10T15:44:14.905Z,1.40
2022-11-10T15:46:43.492Z,1.53
2022-11-10T15:49:15.009Z,1.60
2022-11-10T15:51:43.573Z,1.93
2022-11-10T15:54:12.464Z,0.90
2022-11-10T15:56:42.344Z,1.20
2022-11-10T15:59:11.508Z,1.47
2022-11-10T16:01:40.342Z,1.80
2022-11-10T16:04:10.639Z,1.43
2022-11-10T16:06:39.867Z,1.57
2022-11-10T16:09:08.539Z,2.03
2022-11-10T16:11:37.208Z,1.10
2022-11-10T16:14:07.415Z,1.00
2022-11-10T16:16:36.023Z,1.67
2022-11-10T16:19:04.611Z,1.20
2022-11-10T16:21:33.182Z,2.07
2022-11-10T16:24:01.838Z,1.07
2022-11-10T16:26:30.829Z,1.20
2022-11-10T16:28:59.391Z,0.90
2022-11-10T16:31:31.658Z,1.50
2022-11-10T16:34:00.216Z,1.30
2022-11-10T16:36:29.687Z,1.30
2022-11-10T16:38:58.650Z,0.97
2022-11-10T16:41:27.219Z,1.30
2022-11-10T16:43:55.757Z,1.30
2022-11-10T16:46:25.065Z,1.00
2022-11-10T16:48:56.845Z,1.37
2022-11-10T16:51:28.685Z,1.30
2022-11-10T16:53:59.121Z,1.27
2022-11-10T16:56:27.720Z,0.93
2022-11-10T16:58:56.294Z,1.17
2022-11-10T17:01:27.190Z,1.40
2022-11-10T17:03:58.361Z,1.20
2022-11-10T17:06:28.314Z,1.20
2022-11-10T17:08:59.405Z,0.70
2022-11-10T17:11:27.969Z,0.87
2022-11-10T17:13:56.515Z,1.13
2022-11-10T17:16:27.938Z,1.40
2022-11-10T17:18:58.215Z,1.17
2022-11-10T17:21:32.502Z,1.70
2022-11-10T17:24:01.678Z,1.43
2022-11-10T17:26:30.850Z,1.00
2022-11-10T17:28:59.591Z,1.10
2022-11-10T17:31:28.140Z,1.37
2022-11-10T17:33:58.146Z,1.13
2022-11-10T17:36:27.785Z,1.33
2022-11-10T17:38:56.365Z,1.20
2022-11-10T17:41:24.910Z,1.70
2022-11-10T17:43:53.565Z,1.33
2022-11-10T17:46:22.233Z,1.03
2022-11-10T17:48:54.728Z,1.10
2022-11-10T17:51:24.743Z,1.07
2022-11-10T17:53:53.565Z,0.80
2022-11-10T17:56:22.158Z,1.87
2022-11-10T17:58:50.858Z,1.10
2022-11-10T18:01:21.990Z,1.20
2022-11-10T18:03:50.961Z,1.80
2022-11-10T18:06:20.696Z,1.50
2022-11-10T18:08:50.611Z,1.30
2022-11-10T18:11:20.077Z,1.47
2022-11-10T18:13:48.642Z,1.10
2022-11-10T18:16:17.205Z,1.37
2022-11-10T18:18:45.774Z,1.53
2022-11-10T18:21:14.299Z,1.60
2022-11-10T18:23:45.053Z,0.90
2022-11-10T18:26:14.968Z,1.60
2022-11-10T18:28:43.560Z,1.20
2022-11-10T18:31:13.602Z,1.40
2022-11-10T18:33:42.183Z,1.20
2022-11-10T18:36:11.162Z,1.77
2022-11-10T18:38:39.782Z,2.47
2022-11-10T18:41:34.623Z,0.93
2022-11-10T18:44:04.583Z,1.20
2022-11-10T18:46:33.122Z,1.10
2022-11-10T18:49:01.695Z,1.20
2022-11-10T18:51:32.054Z,1.20
2022-11-10T18:54:00.662Z,1.10
2022-11-10T18:56:29.288Z,1.20
2022-11-10T18:58:57.880Z,1.33
2022-11-10T19:01:28.199Z,1.30
2022-11-10T19:03:57.089Z,1.13
2022-11-10T19:06:25.658Z,1.87
2022-11-10T19:08:54.271Z,1.67
2022-11-10T19:11:22.801Z,1.20
2022-11-10T19:13:51.346Z,1.27
2022-11-10T19:16:20.434Z,1.67
2022-11-10T19:18:50.333Z,2.00
2022-11-10T19:21:20.145Z,1.00
2022-11-10T19:23:48.728Z,1.17
2022-11-10T19:26:22.460Z,1.70
2022-11-10T19:28:53.178Z,0.80
2022-11-10T19:31:22.762Z,0.80
2022-11-10T19:33:55.103Z,1.57
2022-11-10T19:36:24.551Z,1.40
2022-11-10T19:38:54.558Z,1.00
2022-11-10T19:41:24.113Z,1.50
2022-11-10T19:43:52.667Z,1.37
2022-11-10T19:46:22.304Z,0.83
2022-11-10T19:48:50.893Z,1.00
2022-11-10T19:51:22.573Z,1.00
2022-11-10T19:53:56.374Z,1.37
2022-11-10T19:56:30.425Z,1.30
2022-11-10T19:59:00.316Z,1.13
2022-11-10T20:01:29.232Z,1.20
2022-11-10T20:03:57.809Z,1.10
2022-11-10T20:06:27.730Z,1.30
2022-11-10T20:08:56.361Z,1.27
2022-11-10T20:11:25.761Z,1.00
2022-11-10T20:13:55.441Z,1.33
2022-11-10T20:16:24.369Z,1.03
2022-11-10T20:18:53.007Z,1.97
2022-11-10T20:21:23.673Z,1.03
2022-11-10T20:23:57.131Z,1.00
2022-11-10T20:26:26.131Z,0.87
2022-11-10T20:28:54.788Z,1.53
2022-11-10T20:31:24.445Z,1.20
2022-11-10T20:33:53.768Z,0.93
2022-11-10T20:36:23.731Z,1.10
2022-11-10T20:38:52.703Z,1.00
2022-11-10T20:41:23.990Z,1.30
2022-11-10T20:43:52.902Z,1.17
2022-11-10T20:46:48.100Z,1.27
2022-11-10T20:49:10.876Z,1.10
2022-11-10T20:51:39.508Z,1.20
2022-11-10T20:54:08.567Z,1.03
2022-11-10T20:56:38.466Z,1.10
2022-11-10T20:59:07.070Z,1.20
2022-11-10T21:01:37.485Z,0.87
2022-11-10T21:04:06.665Z,1.10
2022-11-10T21:06:35.258Z,0.70
2022-11-10T21:09:03.868Z,1.00
2022-11-10T21:11:50.204Z,1.00
2022-11-10T21:14:20.211Z,1.83
2022-11-10T21:16:48.771Z,1.70
2022-11-10T21:19:17.447Z,1.00
2022-11-10T21:21:46.024Z,1.13
2022-11-10T21:24:14.593Z,1.13
2022-11-10T21:26:43.173Z,1.03
2022-11-10T21:29:11.699Z,1.30
2022-11-10T21:31:41.823Z,1.07
2022-11-10T21:34:10.786Z,1.37
2022-11-10T21:36:39.498Z,1.50
2022-11-10T21:39:08.148Z,1.17
2022-11-10T21:41:36.667Z,1.07
2022-11-10T21:44:05.332Z,2.27
2022-11-10T21:46:33.896Z,1.10
2022-11-10T21:49:07.553Z,0.73
2022-11-10T21:51:36.695Z,1.03
2022-11-10T21:54:05.242Z,1.20
2022-11-10T21:56:33.924Z,1.00
2022-11-10T21:59:02.559Z,1.30
2022-11-10T22:01:31.147Z,1.10
2022-11-10T22:03:59.732Z,0.87
2022-11-10T22:06:43.625Z,1.33
2022-11-10T22:09:12.236Z,0.80
2022-11-10T22:11:58.520Z,0.70
2022-11-10T22:14:45.045Z,0.90
2022-11-10T22:17:38.286Z,0.60
2022-11-10T22:20:07.222Z,0.90
2022-11-10T22:22:37.121Z,0.60
2022-11-10T22:25:06.000Z,0.63
2022-11-10T22:27:34.564Z,0.67
2022-11-10T22:30:03.104Z,0.77
2022-11-10T22:32:31.634Z,0.60
2022-11-10T22:35:00.211Z,0.60
2022-11-10T22:37:32.852Z,0.80
2022-11-10T22:40:20.649Z,0.70
2022-11-10T22:43:07.175Z,1.03
2022-11-10T22:45:35.708Z,0.90
2022-11-10T22:48:22.099Z,0.80
2022-11-10T22:50:55.164Z,0.83
2022-11-10T22:53:24.494Z,1.70
2022-11-10T22:55:54.684Z,0.60
2022-11-10T22:58:23.208Z,0.80
2022-11-10T23:00:52.095Z,1.20
2022-11-10T23:03:20.855Z,1.10
2022-11-10T23:05:56.343Z,1.33
2022-11-10T23:08:25.195Z,0.83
2022-11-10T23:11:00.246Z,1.17
2022-11-10T23:13:29.009Z,1.10
2022-11-10T23:16:02.040Z,0.90
2022-11-10T23:18:30.840Z,0.67
2022-11-10T23:21:00.089Z,0.90
2022-11-10T23:23:29.187Z,1.17
2022-11-10T23:26:00.011Z,0.73
2022-11-10T23:28:29.461Z,0.90
2022-11-10T23:31:03.766Z,1.23
2022-11-10T23:33:33.347Z,0.97
2022-11-10T23:36:02.130Z,0.83
2022-11-10T23:38:31.581Z,0.60
2022-11-10T23:41:01.995Z,0.70
2022-11-10T23:43:30.882Z,0.80
2022-11-10T23:46:06.791Z,1.53
2022-11-10T23:48:36.226Z,0.80
2022-11-10T23:51:05.308Z,0.80
2022-11-10T23:53:33.896Z,1.17
2022-11-10T23:56:04.780Z,0.63
2022-11-10T23:58:33.427Z,1.10
